createdAt,value
2023-03-29T00:00:38.705Z,23.0613
2023-03-29T00:01:40.139Z,23.0541
2023-03-29T00:02:53.386Z,23.0586
2023-03-29T00:03:43.066Z,23.0540
2023-03-29T00:04:44.436Z,23.0605
2023-03-29T00:05:45.945Z,23.0490
2023-03-29T00:06:47.284Z,23.0474
2023-03-29T00:07:48.729Z,23.0430
2023-03-29T00:08:50.167Z,23.0467
2023-03-29T00:09:51.563Z,23.0447
2023-03-29T00:10:52.998Z,23.0521
2023-03-29T00:11:54.422Z,23.0488
2023-03-29T00:12:55.848Z,23.0379
2023-03-29T00:13:57.298Z,23.0430
2023-03-29T00:14:58.722Z,23.0414
2023-03-29T00:16:00.145Z,23.0285
2023-03-29T00:17:01.613Z,23.0354
2023-03-29T00:18:02.999Z,23.0435
2023-03-29T00:19:04.443Z,23.0367
2023-03-29T00:20:05.854Z,23.0383
2023-03-29T00:21:07.302Z,23.0424
2023-03-29T00:22:08.741Z,23.0430
2023-03-29T00:23:10.171Z,23.0424
2023-03-29T00:24:11.560Z,23.0369
2023-03-29T00:25:13.074Z,23.0289
2023-03-29T00:26:14.489Z,23.0449
2023-03-29T00:27:15.889Z,23.0305
2023-03-29T00:28:17.336Z,23.0373
2023-03-29T00:29:18.801Z,23.0357
2023-03-29T00:30:20.159Z,23.0398
2023-03-29T00:31:21.646Z,23.0299
2023-03-29T00:32:23.051Z,23.0352
2023-03-29T00:33:24.475Z,23.0297
2023-03-29T00:34:25.899Z,23.0229
2023-03-29T00:35:27.360Z,23.0270
2023-03-29T00:36:28.771Z,23.0231
2023-03-29T00:37:30.217Z,23.0137
2023-03-29T00:38:31.773Z,23.0217
2023-03-29T00:39:33.032Z,23.0232
2023-03-29T00:40:34.466Z,23.0227
2023-03-29T00:41:35.914Z,23.0235
2023-03-29T00:42:37.363Z,23.0221
2023-03-29T00:43:38.749Z,23.0215
2023-03-29T00:44:40.171Z,23.0147
2023-03-29T00:45:41.588Z,23.0116
2023-03-29T00:46:43.117Z,23.0174
2023-03-29T00:47:44.542Z,23.0170
2023-03-29T00:48:45.922Z,23.0151
2023-03-29T00:49:47.300Z,23.0139
2023-03-29T00:50:48.772Z,23.0126
2023-03-29T00:51:50.177Z,23.0188
2023-03-29T00:52:51.602Z,23.0135
2023-03-29T00:53:53.032Z,23.0104
2023-03-29T00:54:54.457Z,23.0118
2023-03-29T00:55:55.886Z,23.0131
2023-03-29T00:56:57.430Z,23.0124
2023-03-29T00:57:58.742Z,23.0124
2023-03-29T00:59:00.172Z,23.0131
2023-03-29T01:00:01.609Z,23.0137
2023-03-29T01:01:03.316Z,23.0112
2023-03-29T01:02:04.503Z,23.0129
2023-03-29T01:03:05.961Z,23.0098
2023-03-29T01:04:07.312Z,23.0129
2023-03-29T01:05:08.719Z,23.0036
2023-03-29T01:06:10.126Z,23.0104
2023-03-29T01:07:11.632Z,23.0014
2023-03-29T01:08:12.992Z,23.0071
2023-03-29T01:09:14.428Z,23.0028
2023-03-29T01:10:15.844Z,23.0126
2023-03-29T01:11:17.524Z,23.0011
2023-03-29T01:12:18.704Z,23.0077
2023-03-29T01:13:20.110Z,22.9991
2023-03-29T01:14:21.542Z,22.9956
2023-03-29T01:15:23.020Z,22.9962
2023-03-29T01:16:24.420Z,22.9987
2023-03-29T01:17:25.919Z,22.9940
2023-03-29T01:18:27.269Z,22.9907
2023-03-29T01:19:28.726Z,22.9958
2023-03-29T01:20:30.133Z,22.9935
2023-03-29T01:21:31.610Z,22.9923
2023-03-29T01:22:33.008Z,22.9886
2023-03-29T01:23:34.431Z,22.9864
2023-03-29T01:24:35.865Z,22.9894
2023-03-29T01:25:37.293Z,22.9876
2023-03-29T01:26:38.722Z,22.9833
2023-03-29T01:27:40.160Z,22.9833
2023-03-29T01:28:41.547Z,22.9804
2023-03-29T01:29:42.992Z,22.9728
2023-03-29T01:30:44.423Z,22.9822
2023-03-29T01:31:45.976Z,22.9769
2023-03-29T01:32:47.293Z,22.9896
2023-03-29T01:33:48.738Z,22.9744
2023-03-29T01:34:50.098Z,22.9829
2023-03-29T01:35:51.589Z,22.9798
2023-03-29T01:36:52.951Z,22.9785
2023-03-29T01:37:54.450Z,22.9730
2023-03-29T01:38:55.817Z,22.9788
2023-03-29T01:39:57.254Z,22.9732
2023-03-29T01:40:58.663Z,22.9689
2023-03-29T01:42:00.102Z,22.9783
2023-03-29T01:43:01.560Z,22.9751
2023-03-29T01:44:03.011Z,22.9724
2023-03-29T01:45:04.384Z,22.9718
2023-03-29T01:46:05.830Z,22.9695
2023-03-29T01:47:07.270Z,22.9623
2023-03-29T01:48:08.691Z,22.9734
2023-03-29T01:49:10.087Z,22.9644
2023-03-29T01:50:11.550Z,22.9662
2023-03-29T01:51:12.947Z,22.9592
2023-03-29T01:52:14.391Z,22.9658
2023-03-29T01:53:15.824Z,22.9716
2023-03-29T01:54:17.244Z,22.9654
2023-03-29T01:55:18.659Z,22.9603
2023-03-29T01:56:20.101Z,22.9531
2023-03-29T01:57:21.536Z,22.9580
2023-03-29T01:58:22.946Z,22.9566
2023-03-29T01:59:24.341Z,22.9549
2023-03-29T02:00:25.796Z,22.9601
2023-03-29T02:01:27.248Z,22.9541
2023-03-29T02:02:28.754Z,22.9463
2023-03-29T02:03:30.140Z,22.9488
2023-03-29T02:04:31.492Z,22.9490
2023-03-29T02:05:32.922Z,22.9508
2023-03-29T02:06:34.445Z,22.9547
2023-03-29T02:07:35.761Z,22.9438
2023-03-29T02:08:37.229Z,22.9463
2023-03-29T02:09:38.630Z,22.9455
2023-03-29T02:10:40.080Z,22.9387
2023-03-29T02:11:41.466Z,22.9440
2023-03-29T02:12:42.929Z,22.9391
2023-03-29T02:13:44.441Z,22.9354
2023-03-29T02:14:45.867Z,22.9325
2023-03-29T02:15:47.386Z,22.9418
2023-03-29T02:16:48.702Z,22.9399
2023-03-29T02:17:50.174Z,22.9288
2023-03-29T02:18:51.543Z,22.9278
2023-03-29T02:19:52.984Z,22.9266
2023-03-29T02:20:54.398Z,22.9342
2023-03-29T02:21:55.813Z,22.9258
2023-03-29T02:22:57.278Z,22.9262
2023-03-29T02:23:58.676Z,22.9303
2023-03-29T02:25:00.132Z,22.9268
2023-03-29T02:26:01.521Z,22.9241
2023-03-29T02:27:02.949Z,22.9276
2023-03-29T02:28:04.384Z,22.9254
2023-03-29T02:29:05.806Z,22.9286
2023-03-29T02:30:07.238Z,22.9138
2023-03-29T02:31:08.687Z,22.9169
2023-03-29T02:32:10.073Z,22.9247
2023-03-29T02:33:11.625Z,22.9243
2023-03-29T02:34:12.977Z,22.9182
2023-03-29T02:35:14.339Z,22.9256
2023-03-29T02:36:15.779Z,22.9188
2023-03-29T02:37:17.193Z,22.9120
2023-03-29T02:38:18.660Z,22.9124
2023-03-29T02:39:20.049Z,22.9102
2023-03-29T02:40:21.490Z,22.9085
2023-03-29T02:41:22.893Z,22.9062
2023-03-29T02:42:24.318Z,22.9052
2023-03-29T02:43:26.139Z,22.9065
2023-03-29T02:44:27.160Z,22.9044
2023-03-29T02:45:28.618Z,22.8997
2023-03-29T02:46:30.055Z,22.9015
2023-03-29T02:47:31.506Z,22.9050
2023-03-29T02:48:32.945Z,22.8917
2023-03-29T02:49:34.309Z,22.9007
2023-03-29T02:50:35.733Z,22.8900
2023-03-29T02:51:37.160Z,22.8915
2023-03-29T02:52:38.590Z,22.8898
2023-03-29T02:53:40.052Z,22.8890
2023-03-29T02:54:41.437Z,22.8919
2023-03-29T02:55:42.964Z,22.8878
2023-03-29T02:56:44.334Z,22.8884
2023-03-29T02:57:45.755Z,22.8919
2023-03-29T02:58:47.183Z,22.8898
2023-03-29T02:59:48.604Z,22.8876
2023-03-29T03:00:50.005Z,22.8917
2023-03-29T03:01:51.512Z,22.8919
2023-03-29T03:02:52.965Z,22.8921
2023-03-29T03:03:54.354Z,22.8871
2023-03-29T03:04:55.757Z,22.8814
2023-03-29T03:05:57.161Z,22.8849
2023-03-29T03:06:58.576Z,22.8855
2023-03-29T03:08:00.013Z,22.8791
2023-03-29T03:09:02.022Z,22.8814
2023-03-29T03:10:02.887Z,22.8814
2023-03-29T03:11:04.507Z,22.8851
2023-03-29T03:12:05.734Z,22.8841
2023-03-29T03:13:07.168Z,22.8837
2023-03-29T03:14:08.606Z,22.8734
2023-03-29T03:15:10.024Z,22.8750
2023-03-29T03:16:11.456Z,22.8746
2023-03-29T03:17:12.859Z,22.8748
2023-03-29T03:18:14.294Z,22.8820
2023-03-29T03:19:15.740Z,22.8746
2023-03-29T03:20:17.147Z,22.8703
2023-03-29T03:21:18.589Z,22.8670
2023-03-29T03:22:20.006Z,22.8709
2023-03-29T03:23:21.489Z,22.8678
2023-03-29T03:24:22.860Z,22.8641
2023-03-29T03:25:24.259Z,22.8707
2023-03-29T03:26:25.692Z,22.8660
2023-03-29T03:27:27.147Z,22.8592
2023-03-29T03:28:28.653Z,22.8611
2023-03-29T03:29:30.006Z,22.8637
2023-03-29T03:30:31.464Z,22.8530
2023-03-29T03:31:32.928Z,22.8617
2023-03-29T03:32:34.327Z,22.8726
2023-03-29T03:33:35.726Z,22.8705
2023-03-29T03:34:37.148Z,22.8726
2023-03-29T03:35:38.589Z,22.8709
2023-03-29T03:36:39.984Z,22.8754
2023-03-29T03:37:41.408Z,22.8732
2023-03-29T03:38:42.869Z,22.8865
2023-03-29T03:39:44.274Z,22.8853
2023-03-29T03:40:45.702Z,22.8834
2023-03-29T03:41:47.155Z,22.8777
2023-03-29T03:42:48.541Z,22.8726
2023-03-29T03:43:49.970Z,22.8674
2023-03-29T03:44:51.427Z,22.8752
2023-03-29T03:45:52.927Z,22.8674
2023-03-29T03:46:54.251Z,22.8697
2023-03-29T03:47:55.675Z,22.8678
2023-03-29T03:48:57.161Z,22.8590
2023-03-29T03:49:58.534Z,22.8617
2023-03-29T03:51:00.052Z,22.8691
2023-03-29T03:52:01.389Z,22.8703
2023-03-29T03:53:02.808Z,22.8676
2023-03-29T03:54:04.292Z,22.8606
2023-03-29T03:55:05.691Z,22.8545
2023-03-29T03:56:07.090Z,22.8611
2023-03-29T03:57:08.528Z,22.8590
2023-03-29T03:58:09.962Z,22.8596
2023-03-29T03:59:11.400Z,22.8594
2023-03-29T04:00:12.804Z,22.8549
2023-03-29T04:01:14.237Z,22.8457
2023-03-29T04:02:15.735Z,22.8666
2023-03-29T04:03:17.263Z,22.8471
2023-03-29T04:04:18.552Z,22.8563
2023-03-29T04:05:20.024Z,22.8547
2023-03-29T04:06:21.363Z,22.8518
2023-03-29T04:07:22.820Z,22.8463
2023-03-29T04:08:24.233Z,22.8424
2023-03-29T04:09:25.696Z,22.8483
2023-03-29T04:10:27.100Z,22.8091
2023-03-29T04:11:28.538Z,22.8403
2023-03-29T04:12:29.981Z,22.8391
2023-03-29T04:13:31.384Z,22.8434
2023-03-29T04:14:32.808Z,22.8475
2023-03-29T04:15:34.304Z,22.8450
2023-03-29T04:16:35.663Z,22.8528
2023-03-29T04:17:37.201Z,22.8479
2023-03-29T04:18:38.593Z,22.8452
2023-03-29T04:19:39.988Z,22.8459
2023-03-29T04:20:41.376Z,22.8413
2023-03-29T04:21:42.823Z,22.8432
2023-03-29T04:22:44.325Z,22.8407
2023-03-29T04:23:45.678Z,22.8393
2023-03-29T04:24:47.100Z,22.8383
2023-03-29T04:25:48.528Z,22.8391
2023-03-29T04:26:49.958Z,22.8391
2023-03-29T04:27:51.389Z,22.8393
2023-03-29T04:28:52.797Z,22.8350
2023-03-29T04:29:54.267Z,22.8344
2023-03-29T04:30:55.658Z,22.8378
2023-03-29T04:31:57.096Z,22.8296
2023-03-29T04:32:58.606Z,22.8313
2023-03-29T04:34:00.514Z,22.8331
2023-03-29T04:35:01.441Z,22.8323
2023-03-29T04:36:02.837Z,22.8327
2023-03-29T04:37:04.220Z,22.8261
2023-03-29T04:38:05.652Z,22.8286
2023-03-29T04:39:07.104Z,22.8284
2023-03-29T04:40:08.540Z,22.8233
2023-03-29T04:41:10.963Z,22.8291
2023-03-29T04:42:11.459Z,22.8272
2023-03-29T04:43:12.804Z,22.8218
2023-03-29T04:44:14.218Z,22.8224
2023-03-29T04:45:15.722Z,22.8222
2023-03-29T04:46:17.148Z,22.8169
2023-03-29T04:47:18.500Z,22.8255
2023-03-29T04:48:19.937Z,22.8187
2023-03-29T04:49:21.802Z,22.8185
2023-03-29T04:50:22.797Z,22.8142
2023-03-29T04:51:24.237Z,22.8239
2023-03-29T04:52:25.662Z,22.8181
2023-03-29T04:53:27.080Z,22.8161
2023-03-29T04:54:28.536Z,22.8159
2023-03-29T04:55:29.925Z,22.8167
2023-03-29T04:56:31.375Z,22.8175
2023-03-29T04:57:32.793Z,22.8122
2023-03-29T04:58:34.230Z,22.8113
2023-03-29T04:59:35.664Z,22.8120
2023-03-29T05:00:37.090Z,22.8155
2023-03-29T05:01:42.738Z,22.8212
2023-03-29T05:02:39.316Z,22.7406
2023-03-29T05:03:41.365Z,22.5562
2023-03-29T05:04:42.873Z,22.3923
2023-03-29T05:05:44.211Z,22.2516
2023-03-29T05:06:45.632Z,22.1259
2023-03-29T05:07:47.083Z,22.0187
2023-03-29T05:08:48.471Z,21.8813
2023-03-29T05:09:49.924Z,21.8240
2023-03-29T05:10:51.325Z,21.9445
2023-03-29T05:11:52.772Z,22.0729
2023-03-29T05:12:54.461Z,22.1625
2023-03-29T05:13:55.633Z,22.2216
2023-03-29T05:14:57.013Z,22.2736
2023-03-29T05:15:58.490Z,22.3180
2023-03-29T05:16:59.905Z,22.3578
2023-03-29T05:18:01.374Z,22.3972
2023-03-29T05:19:02.755Z,22.3985
2023-03-29T05:20:04.182Z,22.3716
2023-03-29T05:21:05.613Z,22.3615
2023-03-29T05:22:07.044Z,22.3549
2023-03-29T05:23:08.426Z,22.3231
2023-03-29T05:24:09.909Z,22.2980
2023-03-29T05:25:11.318Z,22.2728
2023-03-29T05:26:12.729Z,22.2541
2023-03-29T05:27:14.181Z,22.2200
2023-03-29T05:28:15.589Z,22.1838
2023-03-29T05:29:17.017Z,22.1590
2023-03-29T05:30:18.433Z,22.2093
2023-03-29T05:31:19.919Z,22.2148
2023-03-29T05:32:22.097Z,22.2463
2023-03-29T05:33:22.749Z,22.2705
2023-03-29T05:34:24.155Z,22.3116
2023-03-29T05:35:25.545Z,22.3323
2023-03-29T05:36:26.993Z,22.3508
2023-03-29T05:37:28.404Z,22.3775
2023-03-29T05:38:29.829Z,22.4005
2023-03-29T05:39:31.253Z,22.4137
2023-03-29T05:40:32.725Z,22.4270
2023-03-29T05:41:34.116Z,22.4367
2023-03-29T05:42:35.552Z,22.4507
2023-03-29T05:43:37.000Z,22.4583
2023-03-29T05:44:38.454Z,22.4722
2023-03-29T05:45:39.818Z,22.4646
2023-03-29T05:46:41.305Z,22.4509
2023-03-29T05:47:42.847Z,22.4603
2023-03-29T05:48:44.079Z,22.4895
2023-03-29T05:49:45.639Z,22.4901
2023-03-29T05:50:47.040Z,22.4989
2023-03-29T05:51:48.377Z,22.5201
2023-03-29T05:52:49.783Z,22.5404
2023-03-29T05:53:51.215Z,22.5178
2023-03-29T05:54:52.633Z,22.5112
2023-03-29T05:55:54.106Z,22.5106
2023-03-29T05:56:55.534Z,22.5098
2023-03-29T05:57:56.925Z,22.5028
2023-03-29T05:58:58.363Z,22.5189
2023-03-29T05:59:59.818Z,22.5312
2023-03-29T06:01:01.479Z,22.5281
2023-03-29T06:02:02.737Z,22.5217
2023-03-29T06:03:17.651Z,22.5435
2023-03-29T06:04:05.504Z,22.5587
2023-03-29T06:05:06.996Z,22.5671
2023-03-29T06:06:08.343Z,22.5669
2023-03-29T06:07:09.785Z,22.5700
2023-03-29T06:08:11.210Z,22.5729
2023-03-29T06:09:12.628Z,22.5659
2023-03-29T06:10:14.064Z,22.5755
2023-03-29T06:11:15.468Z,22.5786
2023-03-29T06:12:16.931Z,22.5829
2023-03-29T06:13:18.328Z,22.5782
2023-03-29T06:14:19.755Z,22.5556
2023-03-29T06:15:21.313Z,22.5618
2023-03-29T06:16:22.765Z,22.5571
2023-03-29T06:17:24.219Z,22.5583
2023-03-29T06:18:25.565Z,22.5743
2023-03-29T06:19:26.974Z,22.5768
2023-03-29T06:20:28.400Z,22.5817
2023-03-29T06:21:29.829Z,22.5757
2023-03-29T06:22:31.250Z,22.5694
2023-03-29T06:23:32.666Z,22.5603
2023-03-29T06:24:34.087Z,22.5400
2023-03-29T06:25:35.514Z,22.5207
2023-03-29T06:26:36.962Z,22.4930
2023-03-29T06:27:38.377Z,22.4702
2023-03-29T06:28:39.782Z,22.4402
2023-03-29T06:29:41.249Z,22.4270
2023-03-29T06:30:42.642Z,22.4120
2023-03-29T06:31:44.154Z,22.3942
2023-03-29T06:32:45.554Z,22.3747
2023-03-29T06:33:46.965Z,22.3769
2023-03-29T06:34:48.362Z,22.3716
2023-03-29T06:35:49.907Z,22.3597
2023-03-29T06:36:51.202Z,22.3401
2023-03-29T06:37:52.644Z,22.3414
2023-03-29T06:38:54.082Z,22.3332
2023-03-29T06:39:55.505Z,22.3311
2023-03-29T06:40:56.948Z,22.3258
2023-03-29T06:41:58.351Z,22.3132
2023-03-29T06:42:59.762Z,22.3254
2023-03-29T06:44:01.218Z,22.3254
2023-03-29T06:45:02.666Z,22.3408
2023-03-29T06:46:04.138Z,22.3613
2023-03-29T06:47:05.577Z,22.3775
2023-03-29T06:48:06.972Z,22.3946
2023-03-29T06:49:08.350Z,22.4057
2023-03-29T06:50:09.798Z,22.4135
2023-03-29T06:51:11.201Z,22.4285
2023-03-29T06:52:12.665Z,22.4394
2023-03-29T06:53:14.060Z,22.4519
2023-03-29T06:54:15.469Z,22.4583
2023-03-29T06:55:16.878Z,22.4759
2023-03-29T06:56:18.335Z,22.4809
2023-03-29T06:57:19.848Z,22.4823
2023-03-29T06:58:21.175Z,22.4987
2023-03-29T06:59:22.628Z,22.4995
2023-03-29T07:00:24.038Z,22.4987
2023-03-29T07:01:25.486Z,22.5037
2023-03-29T07:02:26.947Z,22.5207
2023-03-29T07:03:28.319Z,22.5221
2023-03-29T07:04:29.831Z,22.5267
2023-03-29T07:05:31.174Z,22.5030
2023-03-29T07:06:32.605Z,22.5240
2023-03-29T07:07:34.028Z,22.5328
2023-03-29T07:08:35.442Z,22.5314
2023-03-29T07:09:36.874Z,22.5499
2023-03-29T07:10:38.357Z,22.5569
2023-03-29T07:11:39.747Z,22.5690
2023-03-29T07:12:41.146Z,22.5926
2023-03-29T07:13:42.807Z,22.5953
2023-03-29T07:14:46.242Z,22.6049
2023-03-29T07:15:45.425Z,22.6070
2023-03-29T07:16:47.104Z,22.6070
2023-03-29T07:17:48.289Z,22.6010
2023-03-29T07:18:49.701Z,22.6105
2023-03-29T07:19:51.109Z,22.6179
2023-03-29T07:20:52.594Z,22.6331
2023-03-29T07:21:54.014Z,22.6405
2023-03-29T07:22:55.405Z,22.6538
2023-03-29T07:23:56.820Z,22.6598
2023-03-29T07:24:58.244Z,22.6647
2023-03-29T07:25:59.649Z,22.6772
2023-03-29T07:27:04.486Z,22.6801
2023-03-29T07:28:02.499Z,22.6897
2023-03-29T07:29:03.925Z,22.6834
2023-03-29T07:30:05.348Z,22.6871
2023-03-29T07:31:06.814Z,22.6867
2023-03-29T07:32:08.290Z,22.6881
2023-03-29T07:33:09.782Z,22.6871
2023-03-29T07:34:11.134Z,22.6865
2023-03-29T07:35:12.529Z,22.6875
2023-03-29T07:36:13.993Z,22.6986
2023-03-29T07:37:15.371Z,22.7093
2023-03-29T07:38:16.828Z,22.7144
2023-03-29T07:39:18.206Z,22.7214
2023-03-29T07:40:19.639Z,22.7251
2023-03-29T07:41:21.050Z,22.7366
2023-03-29T07:42:22.493Z,22.7427
2023-03-29T07:43:23.902Z,22.7487
2023-03-29T07:44:25.333Z,22.7559
2023-03-29T07:45:28.587Z,22.7538
2023-03-29T07:46:28.225Z,22.7627
2023-03-29T07:47:29.649Z,22.7729
2023-03-29T07:48:31.024Z,22.7694
2023-03-29T07:49:32.464Z,22.7738
2023-03-29T07:50:33.877Z,22.7758
2023-03-29T07:51:35.315Z,22.7762
2023-03-29T07:52:36.735Z,22.7592
2023-03-29T07:53:38.174Z,22.7918
2023-03-29T07:54:39.600Z,22.7949
2023-03-29T07:55:41.001Z,22.8033
2023-03-29T07:56:42.449Z,22.8103
2023-03-29T07:57:43.857Z,22.8198
2023-03-29T07:58:45.297Z,22.8183
2023-03-29T07:59:46.723Z,22.8220
2023-03-29T08:00:48.151Z,22.8257
2023-03-29T08:01:49.567Z,22.8085
2023-03-29T08:02:51.025Z,22.8212
2023-03-29T08:03:52.550Z,22.8358
2023-03-29T08:04:54.032Z,22.8348
2023-03-29T08:05:55.283Z,22.8533
2023-03-29T08:06:56.695Z,22.8539
2023-03-29T08:07:58.125Z,22.8559
2023-03-29T08:08:59.554Z,22.8541
2023-03-29T08:10:01.001Z,22.8617
2023-03-29T08:11:02.585Z,22.8325
2023-03-29T08:12:03.822Z,22.6263
2023-03-29T08:13:05.257Z,22.4613
2023-03-29T08:14:06.710Z,22.3740
2023-03-29T08:15:08.194Z,22.3196
2023-03-29T08:16:09.542Z,22.2290
2023-03-29T08:17:11.050Z,22.1177
2023-03-29T08:18:12.470Z,22.0191
2023-03-29T08:19:13.810Z,22.1224
2023-03-29T08:20:15.249Z,22.1972
2023-03-29T08:21:16.665Z,22.2559
2023-03-29T08:22:18.102Z,22.3303
2023-03-29T08:23:19.538Z,22.3890
2023-03-29T08:24:21.174Z,22.4340
2023-03-29T08:25:22.383Z,22.4786
2023-03-29T08:26:23.803Z,22.5028
2023-03-29T08:27:25.214Z,22.5347
2023-03-29T08:28:26.684Z,22.5191
2023-03-29T08:29:28.082Z,22.4786
2023-03-29T08:30:29.519Z,22.3527
2023-03-29T08:31:31.004Z,22.2570
2023-03-29T08:32:32.383Z,22.0639
2023-03-29T08:33:33.809Z,21.8940
2023-03-29T08:34:35.205Z,21.7295
2023-03-29T08:35:36.662Z,21.6787
2023-03-29T08:36:38.060Z,21.7348
2023-03-29T08:37:39.491Z,21.7623
2023-03-29T08:38:40.986Z,21.8638
2023-03-29T08:39:42.359Z,21.9564
2023-03-29T08:40:43.761Z,22.0370
2023-03-29T08:41:45.171Z,22.0805
2023-03-29T08:42:46.596Z,22.1306
2023-03-29T08:43:48.050Z,22.1750
2023-03-29T08:44:49.470Z,22.2036
2023-03-29T08:45:51.236Z,22.2383
2023-03-29T08:46:52.358Z,22.2707
2023-03-29T08:47:53.818Z,22.2927
2023-03-29T08:48:55.197Z,22.3182
2023-03-29T08:49:56.597Z,22.3348
2023-03-29T08:50:58.022Z,22.3724
2023-03-29T08:51:59.451Z,22.4032
2023-03-29T08:53:00.866Z,22.4196
2023-03-29T08:54:02.326Z,22.4367
2023-03-29T08:55:03.732Z,22.4607
2023-03-29T08:56:05.201Z,22.4819
2023-03-29T08:57:06.589Z,22.5014
2023-03-29T08:58:08.004Z,22.5228
2023-03-29T08:59:09.483Z,22.5404
2023-03-29T09:00:10.867Z,22.5587
2023-03-29T09:01:12.344Z,22.5776
2023-03-29T09:02:13.749Z,22.6002
2023-03-29T09:03:15.213Z,22.6113
2023-03-29T09:04:16.605Z,22.6277
2023-03-29T09:05:18.049Z,22.6296
2023-03-29T09:06:19.454Z,22.6429
2023-03-29T09:07:20.889Z,22.6478
2023-03-29T09:08:22.302Z,22.6505
2023-03-29T09:09:23.750Z,22.6604
2023-03-29T09:10:25.183Z,22.6745
2023-03-29T09:11:26.627Z,22.6900
2023-03-29T09:12:28.013Z,22.7113
2023-03-29T09:13:29.535Z,22.7310
2023-03-29T09:14:30.873Z,22.7563
2023-03-29T09:15:32.391Z,22.7733
2023-03-29T09:16:33.764Z,22.7933
2023-03-29T09:17:35.186Z,22.8169
2023-03-29T09:18:36.632Z,22.8621
2023-03-29T09:19:38.030Z,22.8789
2023-03-29T09:20:39.516Z,22.8898
2023-03-29T09:21:40.872Z,22.8968
2023-03-29T09:22:42.313Z,22.9083
2023-03-29T09:23:43.744Z,22.9178
2023-03-29T09:24:45.177Z,22.9128
2023-03-29T09:25:53.554Z,22.9196
2023-03-29T09:26:48.041Z,22.9221
2023-03-29T09:27:49.461Z,22.9321
2023-03-29T09:28:50.896Z,22.9307
2023-03-29T09:29:52.299Z,22.9369
2023-03-29T09:30:53.750Z,22.9383
2023-03-29T09:31:55.153Z,22.9397
2023-03-29T09:32:56.652Z,22.9438
2023-03-29T09:33:57.994Z,22.9467
2023-03-29T09:34:59.444Z,22.9486
2023-03-29T09:36:00.899Z,22.9488
2023-03-29T09:37:02.272Z,22.9531
2023-03-29T09:38:03.702Z,22.9578
2023-03-29T09:39:05.157Z,22.9545
2023-03-29T09:40:06.568Z,22.9545
2023-03-29T09:41:07.997Z,22.9642
2023-03-29T09:42:09.494Z,22.8787
2023-03-29T09:43:10.853Z,22.7834
2023-03-29T09:44:20.773Z,22.7481
2023-03-29T09:45:13.718Z,22.7879
2023-03-29T09:46:15.216Z,22.8296
2023-03-29T09:47:16.547Z,22.8611
2023-03-29T09:48:17.957Z,22.8758
2023-03-29T09:49:19.409Z,22.9007
2023-03-29T09:50:30.960Z,22.9106
2023-03-29T09:51:22.342Z,22.9348
2023-03-29T09:52:23.690Z,22.9336
2023-03-29T09:53:25.126Z,22.9418
2023-03-29T09:54:26.534Z,22.9521
2023-03-29T09:55:27.967Z,22.9477
2023-03-29T09:56:29.400Z,22.9726
2023-03-29T09:57:30.943Z,22.9716
2023-03-29T09:58:32.239Z,22.9664
2023-03-29T09:59:33.684Z,22.9894
2023-03-29T10:00:35.105Z,23.0055
2023-03-29T10:01:36.553Z,23.0102
2023-03-29T10:02:38.036Z,23.0159
2023-03-29T10:03:39.404Z,23.0315
2023-03-29T10:04:40.881Z,23.0283
2023-03-29T10:05:42.245Z,23.0315
2023-03-29T10:06:43.676Z,23.0067
2023-03-29T10:07:45.149Z,22.9942
2023-03-29T10:08:46.522Z,23.0225
2023-03-29T10:09:47.980Z,23.0309
2023-03-29T10:10:49.392Z,23.0379
2023-03-29T10:11:50.875Z,23.0484
2023-03-29T10:12:52.256Z,23.0515
2023-03-29T10:13:53.700Z,23.0560
2023-03-29T10:14:55.193Z,23.0658
2023-03-29T10:15:56.549Z,23.0689
2023-03-29T10:16:58.046Z,23.0732
2023-03-29T10:17:59.607Z,23.0792
2023-03-29T10:19:00.932Z,23.0967
2023-03-29T10:20:04.217Z,23.0975
2023-03-29T10:21:04.146Z,23.1061
2023-03-29T10:22:05.223Z,23.1141
2023-03-29T10:23:06.648Z,23.1264
2023-03-29T10:24:08.071Z,23.1310
2023-03-29T10:25:09.491Z,23.1347
2023-03-29T10:26:10.910Z,23.1597
2023-03-29T10:27:12.325Z,23.1649
2023-03-29T10:28:13.764Z,23.1934
2023-03-29T10:29:15.169Z,23.2176
2023-03-29T10:30:16.626Z,23.2388
2023-03-29T10:31:18.075Z,23.2618
2023-03-29T10:32:19.483Z,23.2834
2023-03-29T10:33:20.930Z,23.2951
2023-03-29T10:34:22.319Z,23.3123
2023-03-29T10:35:23.742Z,23.3464
2023-03-29T10:36:25.173Z,23.3738
2023-03-29T10:37:26.613Z,23.3859
2023-03-29T10:38:28.037Z,23.3783
2023-03-29T10:39:29.446Z,23.3534
2023-03-29T10:40:30.947Z,23.3456
2023-03-29T10:41:32.305Z,23.3337
2023-03-29T10:42:33.754Z,23.3216
2023-03-29T10:43:35.170Z,23.2789
2023-03-29T10:44:36.638Z,23.2456
2023-03-29T10:45:38.043Z,23.2587
2023-03-29T10:46:39.496Z,23.2747
2023-03-29T10:47:40.930Z,23.2848
2023-03-29T10:48:42.309Z,23.2838
2023-03-29T10:49:43.741Z,23.2797
2023-03-29T10:50:45.165Z,23.2680
2023-03-29T10:51:46.593Z,23.2778
2023-03-29T10:52:48.022Z,23.2702
2023-03-29T10:53:49.434Z,23.2573
2023-03-29T10:54:50.891Z,23.2552
2023-03-29T10:55:52.309Z,23.2528
2023-03-29T10:56:53.739Z,23.2575
2023-03-29T10:57:55.182Z,23.2655
2023-03-29T10:58:56.625Z,23.2706
2023-03-29T10:59:58.042Z,23.2787
2023-03-29T11:00:59.491Z,23.2832
2023-03-29T11:02:00.910Z,23.2791
2023-03-29T11:03:02.377Z,23.2895
2023-03-29T11:04:03.873Z,23.2912
2023-03-29T11:05:05.211Z,23.2912
2023-03-29T11:06:06.597Z,23.3019
2023-03-29T11:07:08.062Z,23.3097
2023-03-29T11:08:09.486Z,23.3095
2023-03-29T11:09:10.886Z,23.3072
2023-03-29T11:10:12.369Z,23.3064
2023-03-29T11:11:13.739Z,23.3095
2023-03-29T11:12:16.423Z,23.3111
2023-03-29T11:13:16.588Z,23.3142
2023-03-29T11:14:18.032Z,23.2860
2023-03-29T11:15:19.445Z,23.2967
2023-03-29T11:16:20.998Z,23.3004
2023-03-29T11:17:22.390Z,23.3047
2023-03-29T11:18:23.739Z,23.3177
2023-03-29T11:19:25.177Z,23.3327
2023-03-29T11:20:26.573Z,23.3551
2023-03-29T11:21:28.069Z,23.3637
2023-03-29T11:22:29.431Z,23.3859
2023-03-29T11:23:30.866Z,23.3980
2023-03-29T11:24:32.286Z,23.4091
2023-03-29T11:25:33.709Z,23.4391
2023-03-29T11:26:35.205Z,23.4699
2023-03-29T11:27:36.582Z,23.4958
2023-03-29T11:28:37.988Z,23.5280
2023-03-29T11:29:39.432Z,23.5405
2023-03-29T11:30:40.845Z,23.5627
2023-03-29T11:31:42.344Z,23.5958
2023-03-29T11:32:43.725Z,23.6118
2023-03-29T11:33:45.157Z,23.6326
2023-03-29T11:34:46.530Z,23.6578
2023-03-29T11:35:48.131Z,23.6800
2023-03-29T11:36:49.389Z,23.6973
2023-03-29T11:37:50.825Z,23.7102
2023-03-29T11:38:52.242Z,23.7351
2023-03-29T11:39:53.690Z,23.7579
2023-03-29T11:40:55.094Z,23.7688
2023-03-29T11:41:56.564Z,23.7741
2023-03-29T11:42:57.950Z,23.7963
2023-03-29T11:43:59.375Z,23.8322
2023-03-29T11:45:00.810Z,23.8503
2023-03-29T11:46:02.277Z,23.9201
2023-03-29T11:47:03.741Z,24.0035
2023-03-29T11:48:05.176Z,24.0327
2023-03-29T11:49:06.518Z,24.0715
2023-03-29T11:50:07.945Z,24.1173
2023-03-29T11:51:09.365Z,24.1601
2023-03-29T11:52:10.797Z,24.1948
2023-03-29T11:53:12.241Z,24.2206
2023-03-29T11:54:13.641Z,24.2048
2023-03-29T11:55:15.069Z,24.1993
2023-03-29T11:56:16.491Z,24.2075
2023-03-29T11:57:17.999Z,24.2321
2023-03-29T11:58:19.330Z,24.2447
2023-03-29T11:59:20.747Z,24.2872
2023-03-29T12:00:22.176Z,24.3655
2023-03-29T12:01:23.585Z,24.4536
2023-03-29T12:02:25.221Z,24.5267
2023-03-29T12:03:26.495Z,24.5986
2023-03-29T12:04:27.928Z,24.6477
2023-03-29T12:05:29.296Z,24.6814
2023-03-29T12:06:30.741Z,24.7331
2023-03-29T12:07:32.199Z,24.7574
2023-03-29T12:08:33.590Z,24.7192
2023-03-29T12:09:34.998Z,24.6840
2023-03-29T12:10:36.449Z,24.4994
2023-03-29T12:11:37.857Z,24.2007
2023-03-29T12:12:39.310Z,24.0456
2023-03-29T12:13:40.725Z,24.0189
2023-03-29T12:14:42.169Z,24.0582
2023-03-29T12:15:43.604Z,24.1603
2023-03-29T12:16:45.066Z,24.2321
2023-03-29T12:17:46.497Z,24.2819
2023-03-29T12:18:47.882Z,24.2603
2023-03-29T12:19:49.284Z,24.2038
2023-03-29T12:20:50.730Z,24.1670
2023-03-29T12:21:52.137Z,24.1434
2023-03-29T12:22:53.606Z,24.0966